sensor_id;sensor_type;location;lat;lon;timestamp;pressure;altitude;pressure_sealevel;temperature;humidity
45275;BME280;31019;43.780;25.948;2024-03-23T00:55:21;101272.75;;;0.63;100.00
45275;BME280;31019;43.780;25.948;2024-03-23T00:57:47;101269.75;;;0.67;100.00
45275;BME280;31019;43.780;25.948;2024-03-23T01:00:15;101272.19;;;0.59;100.00
45275;BME280;31019;43.780;25.948;2024-03-23T01:02:41;101271.34;;;0.38;100.00
45275;BME280;31019;43.780;25.948;2024-03-23T01:05:08;101270.59;;;0.47;100.00
45275;BME280;31019;43.780;25.948;2024-03-23T01:07:34;101266.44;;;0.65;100.00
45275;BME280;31019;43.780;25.948;2024-03-23T01:10:02;101265.22;;;0.69;100.00
45275;BME280;31019;43.780;25.948;2024-03-23T01:12:29;101259.94;;;0.81;100.00
45275;BME280;31019;43.780;25.948;2024-03-23T01:14:56;101263.50;;;0.80;100.00
45275;BME280;31019;43.780;25.948;2024-03-23T01:17:22;101271.41;;;0.68;100.00
45275;BME280;31019;43.780;25.948;2024-03-23T01:19:49;101268.19;;;1.07;100.00
45275;BME280;31019;43.780;25.948;2024-03-23T01:22:16;101257.44;;;1.00;100.00
45275;BME280;31019;43.780;25.948;2024-03-23T01:24:43;101259.91;;;1.02;100.00
45275;BME280;31019;43.780;25.948;2024-03-23T01:27:09;101258.25;;;1.01;100.00
45275;BME280;31019;43.780;25.948;2024-03-23T01:29:38;101265.75;;;0.42;100.00
45275;BME280;31019;43.780;25.948;2024-03-23T01:32:04;101263.38;;;0.60;100.00
45275;BME280;31019;43.780;25.948;2024-03-23T01:34:32;101260.06;;;0.58;100.00
45275;BME280;31019;43.780;25.948;2024-03-23T01:36:58;101257.41;;;0.49;100.00
45275;BME280;31019;43.780;25.948;2024-03-23T01:39:26;101256.22;;;0.41;100.00
45275;BME280;31019;43.780;25.948;2024-03-23T01:41:52;101250.91;;;0.11;100.00
45275;BME280;31019;43.780;25.948;2024-03-23T01:44:20;101254.41;;;0.21;100.00
45275;BME280;31019;43.780;25.948;2024-03-23T01:46:52;101254.34;;;0.11;100.00
45275;BME280;31019;43.780;25.948;2024-03-23T01:49:19;101256.03;;;0.12;100.00
45275;BME280;31019;43.780;25.948;2024-03-23T01:51:45;101259.38;;;0.03;100.00
45275;BME280;31019;43.780;25.948;2024-03-23T01:54:12;101257.53;;;-0.17;100.00
45275;BME280;31019;43.780;25.948;2024-03-23T01:56:38;101254.94;;;-0.17;100.00
45275;BME280;31019;43.780;25.948;2024-03-23T01:59:06;101255.97;;;-0.09;100.00
45275;BME280;31019;43.780;25.948;2024-03-23T02:01:34;101257.13;;;-0.02;100.00
45275;BME280;31019;43.780;25.948;2024-03-23T02:04:04;101247.28;;;-0.09;100.00
45275;BME280;31019;43.780;25.948;2024-03-23T02:06:30;101254.84;;;0.05;100.00
45275;BME280;31019;43.780;25.948;2024-03-23T02:08:59;101256.41;;;0.29;100.00
45275;BME280;31019;43.780;25.948;2024-03-23T02:11:26;101247.78;;;0.49;100.00
45275;BME280;31019;43.780;25.948;2024-03-23T02:13:53;101243.59;;;-0.07;100.00
45275;BME280;31019;43.780;25.948;2024-03-23T02:16:20;101253.06;;;0.06;100.00
45275;BME280;31019;43.780;25.948;2024-03-23T02:18:46;101246.78;;;-0.03;100.00
45275;BME280;31019;43.780;25.948;2024-03-23T02:21:15;101247.41;;;0.01;100.00
45275;BME280;31019;43.780;25.948;2024-03-23T02:23:44;101244.19;;;-0.03;100.00
45275;BME280;31019;43.780;25.948;2024-03-23T02:26:11;101247.09;;;-0.17;100.00
45275;BME280;31019;43.780;25.948;2024-03-23T02:28:41;101249.75;;;0.04;100.00
45275;BME280;31019;43.780;25.948;2024-03-23T02:31:08;101248.34;;;-0.01;100.00
45275;BME280;31019;43.780;25.948;2024-03-23T02:33:34;101241.06;;;-0.29;100.00
45275;BME280;31019;43.780;25.948;2024-03-23T02:36:04;101247.28;;;-0.41;100.00
45275;BME280;31019;43.780;25.948;2024-03-23T02:38:30;101247.34;;;-0.32;100.00
45275;BME280;31019;43.780;25.948;2024-03-23T02:41:03;101246.69;;;-0.45;100.00
45275;BME280;31019;43.780;25.948;2024-03-23T02:43:29;101246.56;;;-0.43;100.00
45275;BME280;31019;43.780;25.948;2024-03-23T02:45:56;101241.81;;;-0.61;100.00
45275;BME280;31019;43.780;25.948;2024-03-23T02:48:22;101246.34;;;-0.63;100.00
45275;BME280;31019;43.780;25.948;2024-03-23T02:50:52;101248.00;;;-0.51;100.00
45275;BME280;31019;43.780;25.948;2024-03-23T02:53:19;101250.22;;;-0.46;100.00
45275;BME280;31019;43.780;25.948;2024-03-23T02:55:46;101246.94;;;-0.59;100.00
45275;BME280;31019;43.780;25.948;2024-03-23T02:58:14;101255.44;;;-0.46;100.00
45275;BME280;31019;43.780;25.948;2024-03-23T03:00:41;101250.50;;;-0.60;100.00
45275;BME280;31019;43.780;25.948;2024-03-23T03:03:08;101248.31;;;-0.33;100.00
45275;BME280;31019;43.780;25.948;2024-03-23T03:05:35;101256.22;;;-0.12;100.00
45275;BME280;31019;43.780;25.948;2024-03-23T03:08:01;101251.59;;;-0.19;100.00
45275;BME280;31019;43.780;25.948;2024-03-23T03:10:28;101249.97;;;-0.43;100.00
45275;BME280;31019;43.780;25.948;2024-03-23T03:12:54;101252.72;;;-0.44;100.00
45275;BME280;31019;43.780;25.948;2024-03-23T03:15:23;101254.53;;;-0.56;100.00
45275;BME280;31019;43.780;25.948;2024-03-23T03:17:49;101251.09;;;-0.79;100.00
45275;BME280;31019;43.780;25.948;2024-03-23T03:20:16;101247.78;;;-0.81;100.00
45275;BME280;31019;43.780;25.948;2024-03-23T03:22:43;101245.28;;;-0.72;100.00
45275;BME280;31019;43.780;25.948;2024-03-23T03:25:10;101256.09;;;-0.87;100.00
45275;BME280;31019;43.780;25.948;2024-03-23T03:27:36;101254.53;;;-1.01;100.00
45275;BME280;31019;43.780;25.948;2024-03-23T03:30:04;101248.81;;;-1.06;100.00
45275;BME280;31019;43.780;25.948;2024-03-23T03:32:33;101250.97;;;-1.11;100.00
45275;BME280;31019;43.780;25.948;2024-03-23T03:35:00;101251.56;;;-1.08;100.00
45275;BME280;31019;43.780;25.948;2024-03-23T03:37:27;101248.47;;;-1.13;100.00
45275;BME280;31019;43.780;25.948;2024-03-23T03:39:54;101251.59;;;-0.97;100.00
45275;BME280;31019;43.780;25.948;2024-03-23T03:42:20;101250.13;;;-1.23;100.00
45275;BME280;31019;43.780;25.948;2024-03-23T03:44:47;101245.59;;;-1.21;100.00
45275;BME280;31019;43.780;25.948;2024-03-23T03:47:13;101250.94;;;-1.34;100.00
45275;BME280;31019;43.780;25.948;2024-03-23T03:49:43;101243.97;;;-1.22;100.00
45275;BME280;31019;43.780;25.948;2024-03-23T03:52:09;101245.59;;;-1.44;100.00
45275;BME280;31019;43.780;25.948;2024-03-23T03:54:36;101245.97;;;-1.03;100.00
45275;BME280;31019;43.780;25.948;2024-03-23T03:57:02;101243.16;;;-1.00;100.00
45275;BME280;31019;43.780;25.948;2024-03-23T03:59:29;101238.63;;;-1.09;100.00
45275;BME280;31019;43.780;25.948;2024-03-23T04:01:56;101241.25;;;-1.09;100.00
45275;BME280;31019;43.780;25.948;2024-03-23T04:04:28;101246.22;;;-0.95;100.00
45275;BME280;31019;43.780;25.948;2024-03-23T04:06:59;101243.50;;;-1.05;100.00
45275;BME280;31019;43.780;25.948;2024-03-23T04:09:26;101237.56;;;-1.07;100.00
45275;BME280;31019;43.780;25.948;2024-03-23T04:11:53;101233.22;;;-0.73;100.00
45275;BME280;31019;43.780;25.948;2024-03-23T04:14:20;101239.69;;;-0.67;100.00
45275;BME280;31019;43.780;25.948;2024-03-23T04:16:46;101237.31;;;-0.59;100.00
45275;BME280;31019;43.780;25.948;2024-03-23T04:19:13;101234.69;;;-0.48;100.00
45275;BME280;31019;43.780;25.948;2024-03-23T04:21:41;101237.22;;;-0.80;100.00
45275;BME280;31019;43.780;25.948;2024-03-23T04:24:09;101234.22;;;-0.53;100.00
45275;BME280;31019;43.780;25.948;2024-03-23T04:26:40;101233.31;;;-0.63;100.00
45275;BME280;31019;43.780;25.948;2024-03-23T04:29:08;101236.84;;;-0.53;100.00
45275;BME280;31019;43.780;25.948;2024-03-23T04:31:34;101240.25;;;-0.41;100.00
45275;BME280;31019;43.780;25.948;2024-03-23T04:34:01;101236.66;;;-0.29;100.00
45275;BME280;31019;43.780;25.948;2024-03-23T04:36:27;101237.16;;;-0.24;100.00
45275;BME280;31019;43.780;25.948;2024-03-23T04:38:56;101233.97;;;-0.38;100.00
45275;BME280;31019;43.780;25.948;2024-03-23T04:41:24;101235.69;;;-0.16;100.00
45275;BME280;31019;43.780;25.948;2024-03-23T04:43:52;101232.97;;;-0.15;100.00
45275;BME280;31019;43.780;25.948;2024-03-23T04:46:19;101236.34;;;-0.03;100.00
45275;BME280;31019;43.780;25.948;2024-03-23T04:48:46;101235.16;;;0.01;100.00
45275;BME280;31019;43.780;25.948;2024-03-23T04:51:20;101241.25;;;0.22;100.00
45275;BME280;31019;43.780;25.948;2024-03-23T04:53:48;101240.78;;;0.17;100.00
45275;BME280;31019;43.780;25.948;2024-03-23T04:56:17;101242.91;;;0.44;100.00
45275;BME280;31019;43.780;25.948;2024-03-23T04:58:45;101242.09;;;0.44;100.00
45275;BME280;31019;43.780;25.948;2024-03-23T05:01:12;101239.88;;;0.39;100.00
45275;BME280;31019;43.780;25.948;2024-03-23T05:03:39;101243.94;;;0.53;100.00
45275;BME280;31019;43.780;25.948;2024-03-23T05:06:07;101237.06;;;0.73;100.00
45275;BME280;31019;43.780;25.948;2024-03-23T05:08:37;101235.38;;;0.72;100.00
45275;BME280;31019;43.780;25.948;2024-03-23T05:11:03;101238.22;;;0.90;100.00
45275;BME280;31019;43.780;25.948;2024-03-23T05:13:31;101233.97;;;0.89;100.00
45275;BME280;31019;43.780;25.948;2024-03-23T05:15:58;101226.41;;;0.96;100.00
45275;BME280;31019;43.780;25.948;2024-03-23T05:18:25;101222.09;;;1.16;100.00
45275;BME280;31019;43.780;25.948;2024-03-23T05:20:58;101230.25;;;1.22;100.00
45275;BME280;31019;43.780;25.948;2024-03-23T05:23:26;101231.97;;;1.43;100.00
45275;BME280;31019;43.780;25.948;2024-03-23T05:25:52;101229.38;;;1.52;100.00
45275;BME280;31019;43.780;25.948;2024-03-23T05:28:22;101236.41;;;1.62;100.00
45275;BME280;31019;43.780;25.948;2024-03-23T05:30:50;101230.75;;;1.66;100.00
45275;BME280;31019;43.780;25.948;2024-03-23T05:33:20;101232.75;;;2.03;100.00
45275;BME280;31019;43.780;25.948;2024-03-23T05:35:46;101229.28;;;2.22;100.00
45275;BME280;31019;43.780;25.948;2024-03-23T05:38:13;101225.97;;;2.29;100.00
45275;BME280;31019;43.780;25.948;2024-03-23T05:40:39;101233.16;;;2.27;100.00
45275;BME280;31019;43.780;25.948;2024-03-23T05:43:06;101225.00;;;2.31;100.00
45275;BME280;31019;43.780;25.948;2024-03-23T05:45:32;101220.84;;;2.38;100.00
45275;BME280;31019;43.780;25.948;2024-03-23T05:48:00;101226.50;;;2.52;100.00
45275;BME280;31019;43.780;25.948;2024-03-23T05:50:27;101219.63;;;2.89;100.00
45275;BME280;31019;43.780;25.948;2024-03-23T05:52:54;101227.00;;;3.13;100.00
45275;BME280;31019;43.780;25.948;2024-03-23T05:55:20;101217.84;;;3.17;100.00
45275;BME280;31019;43.780;25.948;2024-03-23T05:57:47;101207.47;;;3.25;100.00
45275;BME280;31019;43.780;25.948;2024-03-23T06:00:14;101216.16;;;3.71;100.00
45275;BME280;31019;43.780;25.948;2024-03-23T06:02:42;101218.41;;;3.48;100.00
45275;BME280;31019;43.780;25.948;2024-03-23T06:05:10;101217.59;;;3.83;100.00
45275;BME280;31019;43.780;25.948;2024-03-23T06:07:39;101220.72;;;3.97;100.00
45275;BME280;31019;43.780;25.948;2024-03-23T06:10:05;101213.47;;;3.99;100.00
45275;BME280;31019;43.780;25.948;2024-03-23T06:12:32;101215.78;;;4.20;100.00
45275;BME280;31019;43.780;25.948;2024-03-23T06:14:58;101219.97;;;4.48;100.00
45275;BME280;31019;43.780;25.948;2024-03-23T06:17:26;101211.00;;;4.85;100.00
45275;BME280;31019;43.780;25.948;2024-03-23T06:19:52;101208.19;;;4.87;100.00
45275;BME280;31019;43.780;25.948;2024-03-23T06:22:19;101214.69;;;5.00;100.00
45275;BME280;31019;43.780;25.948;2024-03-23T06:24:47;101214.00;;;5.41;100.00
45275;BME280;31019;43.780;25.948;2024-03-23T06:27:14;101216.69;;;5.49;100.00
45275;BME280;31019;43.780;25.948;2024-03-23T06:29:40;101209.31;;;5.77;100.00
45275;BME280;31019;43.780;25.948;2024-03-23T06:32:08;101208.84;;;5.73;100.00
45275;BME280;31019;43.780;25.948;2024-03-23T06:34:35;101207.69;;;5.92;100.00
45275;BME280;31019;43.780;25.948;2024-03-23T06:37:01;101210.88;;;6.29;100.00
45275;BME280;31019;43.780;25.948;2024-03-23T06:39:29;101210.84;;;6.53;100.00
45275;BME280;31019;43.780;25.948;2024-03-23T06:41:59;101201.69;;;6.88;100.00
45275;BME280;31019;43.780;25.948;2024-03-23T06:44:26;101197.03;;;7.07;100.00
45275;BME280;31019;43.780;25.948;2024-03-23T06:46:52;101192.72;;;7.14;100.00
45275;BME280;31019;43.780;25.948;2024-03-23T06:49:19;101197.56;;;7.33;100.00
45275;BME280;31019;43.780;25.948;2024-03-23T06:51:45;101195.41;;;7.37;100.00
45275;BME280;31019;43.780;25.948;2024-03-23T06:54:14;101185.22;;;7.57;100.00
45275;BME280;31019;43.780;25.948;2024-03-23T06:56:40;101193.47;;;8.08;100.00
45275;BME280;31019;43.780;25.948;2024-03-23T06:59:09;101185.16;;;8.11;100.00
45275;BME280;31019;43.780;25.948;2024-03-23T07:01:35;101191.91;;;8.14;100.00
45275;BME280;31019;43.780;25.948;2024-03-23T07:04:02;101186.75;;;9.03;100.00
45275;BME280;31019;43.780;25.948;2024-03-23T07:06:29;101174.22;;;8.67;100.00
45275;BME280;31019;43.780;25.948;2024-03-23T07:08:57;101175.63;;;8.78;100.00
45275;BME280;31019;43.780;25.948;2024-03-23T07:11:23;101175.34;;;9.02;100.00
45275;BME280;31019;43.780;25.948;2024-03-23T07:13:50;101168.41;;;9.37;100.00
45275;BME280;31019;43.780;25.948;2024-03-23T07:16:18;101169.22;;;9.74;100.00
45275;BME280;31019;43.780;25.948;2024-03-23T07:18:46;101169.97;;;9.90;100.00
45275;BME280;31019;43.780;25.948;2024-03-23T07:21:12;101164.72;;;9.96;100.00
45275;BME280;31019;43.780;25.948;2024-03-23T07:23:42;101160.34;;;10.66;100.00
45275;BME280;31019;43.780;25.948;2024-03-23T07:26:10;101156.13;;;10.22;100.00
45275;BME280;31019;43.780;25.948;2024-03-23T07:28:38;101156.25;;;10.98;100.00
45275;BME280;31019;43.780;25.948;2024-03-23T07:31:10;101154.78;;;11.57;100.00
45275;BME280;31019;43.780;25.948;2024-03-23T07:33:42;101145.56;;;11.53;100.00
45275;BME280;31019;43.780;25.948;2024-03-23T07:36:09;101146.63;;;11.72;100.00
45275;BME280;31019;43.780;25.948;2024-03-23T07:38:39;101144.22;;;12.10;100.00
45275;BME280;31019;43.780;25.948;2024-03-23T07:41:09;101146.25;;;12.08;100.00
45275;BME280;31019;43.780;25.948;2024-03-23T07:43:37;101131.69;;;12.44;100.00
45275;BME280;31019;43.780;25.948;2024-03-23T07:46:03;101135.53;;;12.61;100.00
45275;BME280;31019;43.780;25.948;2024-03-23T07:48:31;101135.88;;;12.78;100.00
45275;BME280;31019;43.780;25.948;2024-03-23T07:51:03;101134.72;;;13.13;100.00
45275;BME280;31019;43.780;25.948;2024-03-23T07:53:31;101126.00;;;13.37;100.00
45275;BME280;31019;43.780;25.948;2024-03-23T07:55:58;101120.66;;;13.44;100.00
45275;BME280;31019;43.780;25.948;2024-03-23T07:58:26;101123.88;;;12.56;100.00
45275;BME280;31019;43.780;25.948;2024-03-23T08:00:52;101129.38;;;13.13;100.00
45275;BME280;31019;43.780;25.948;2024-03-23T08:03:20;101128.91;;;14.17;100.00
45275;BME280;31019;43.780;25.948;2024-03-23T08:05:46;101120.63;;;14.01;100.00
45275;BME280;31019;43.780;25.948;2024-03-23T08:08:15;101122.38;;;14.57;100.00
45275;BME280;31019;43.780;25.948;2024-03-23T08:10:48;101119.06;;;13.61;100.00
45275;BME280;31019;43.780;25.948;2024-03-23T08:13:15;101119.88;;;12.85;100.00
45275;BME280;31019;43.780;25.948;2024-03-23T08:15:41;101127.50;;;13.58;100.00
45275;BME280;31019;43.780;25.948;2024-03-23T08:18:12;101122.91;;;14.65;100.00
45275;BME280;31019;43.780;25.948;2024-03-23T08:20:38;101111.53;;;13.83;99.57
45275;BME280;31019;43.780;25.948;2024-03-23T08:23:05;101115.72;;;14.23;100.00
45275;BME280;31019;43.780;25.948;2024-03-23T08:25:33;101105.28;;;13.71;100.00
45275;BME280;31019;43.780;25.948;2024-03-23T08:28:00;101116.00;;;12.81;100.00
45275;BME280;31019;43.780;25.948;2024-03-23T08:30:28;101110.41;;;13.41;100.00
45275;BME280;31019;43.780;25.948;2024-03-23T08:32:56;101106.78;;;15.21;100.00
45275;BME280;31019;43.780;25.948;2024-03-23T08:35:22;101103.66;;;15.66;81.19
45275;BME280;31019;43.780;25.948;2024-03-23T08:37:49;101106.28;;;15.42;100.00
45275;BME280;31019;43.780;25.948;2024-03-23T08:40:15;101105.78;;;15.33;100.00
45275;BME280;31019;43.780;25.948;2024-03-23T08:42:47;101101.78;;;15.24;79.17
45275;BME280;31019;43.780;25.948;2024-03-23T08:45:13;101103.63;;;14.20;100.00
45275;BME280;31019;43.780;25.948;2024-03-23T08:47:40;101098.38;;;13.18;100.00
45275;BME280;31019;43.780;25.948;2024-03-23T08:50:06;101109.88;;;13.57;100.00
45275;BME280;31019;43.780;25.948;2024-03-23T08:52:34;101101.34;;;13.98;100.00
45275;BME280;31019;43.780;25.948;2024-03-23T08:55:00;101095.72;;;13.25;100.00
45275;BME280;31019;43.780;25.948;2024-03-23T08:57:27;101095.69;;;13.32;100.00
45275;BME280;31019;43.780;25.948;2024-03-23T08:59:55;101091.78;;;13.27;100.00
45275;BME280;31019;43.780;25.948;2024-03-23T09:02:22;101091.78;;;14.09;100.00
45275;BME280;31019;43.780;25.948;2024-03-23T09:04:48;101087.38;;;13.46;100.00
45275;BME280;31019;43.780;25.948;2024-03-23T09:07:17;101078.31;;;14.96;100.00
45275;BME280;31019;43.780;25.948;2024-03-23T09:09:43;101084.94;;;14.38;100.00
45275;BME280;31019;43.780;25.948;2024-03-23T09:12:10;101077.38;;;13.67;100.00
45275;BME280;31019;43.780;25.948;2024-03-23T09:14:36;101075.41;;;16.40;73.85
45275;BME280;31019;43.780;25.948;2024-03-23T09:17:04;101063.94;;;16.57;69.69
45275;BME280;31019;43.780;25.948;2024-03-23T09:19:31;101067.38;;;14.68;100.00
45275;BME280;31019;43.780;25.948;2024-03-23T09:22:04;101061.28;;;15.63;83.20
45275;BME280;31019;43.780;25.948;2024-03-23T09:24:30;101059.56;;;15.26;100.00
45275;BME280;31019;43.780;25.948;2024-03-23T09:26:57;101059.28;;;15.46;93.71
45275;BME280;31019;43.780;25.948;2024-03-23T09:29:23;101056.97;;;15.50;93.46
45275;BME280;31019;43.780;25.948;2024-03-23T09:31:50;101053.25;;;15.63;86.69
45275;BME280;31019;43.780;25.948;2024-03-23T09:34:18;101033.66;;;15.39;96.50
45275;BME280;31019;43.780;25.948;2024-03-23T09:36:45;101041.88;;;17.07;73.69
45275;BME280;31019;43.780;25.948;2024-03-23T09:39:11;101042.56;;;17.81;67.54
45275;BME280;31019;43.780;25.948;2024-03-23T09:41:39;101037.34;;;15.68;69.29
45275;BME280;31019;43.780;25.948;2024-03-23T09:44:05;101032.69;;;15.75;84.48
45275;BME280;31019;43.780;25.948;2024-03-23T09:46:34;101028.25;;;16.16;88.92
45275;BME280;31019;43.780;25.948;2024-03-23T09:49:02;101022.41;;;16.19;69.29
45275;BME280;31019;43.780;25.948;2024-03-23T09:51:31;101016.44;;;15.34;88.29
45275;BME280;31019;43.780;25.948;2024-03-23T09:53:57;101015.09;;;15.14;100.00
45275;BME280;31019;43.780;25.948;2024-03-23T09:56:24;101007.28;;;16.13;83.32
45275;BME280;31019;43.780;25.948;2024-03-23T09:58:59;101011.31;;;18.36;56.13
45275;BME280;31019;43.780;25.948;2024-03-23T10:01:27;101015.03;;;19.01;52.60
45275;BME280;31019;43.780;25.948;2024-03-23T10:03:55;101004.34;;;16.14;76.41
45275;BME280;31019;43.780;25.948;2024-03-23T10:06:23;100991.88;;;18.51;57.83
45275;BME280;31019;43.780;25.948;2024-03-23T10:08:52;100984.72;;;18.84;50.77
45275;BME280;31019;43.780;25.948;2024-03-23T10:11:20;100994.13;;;16.52;52.60
45275;BME280;31019;43.780;25.948;2024-03-23T10:13:47;100985.16;;;17.03;50.55
45275;BME280;31019;43.780;25.948;2024-03-23T10:16:21;100986.84;;;16.35;53.81
45275;BME280;31019;43.780;25.948;2024-03-23T10:18:48;100983.19;;;18.44;48.36
45275;BME280;31019;43.780;25.948;2024-03-23T10:21:16;100965.22;;;19.36;43.90
45275;BME280;31019;43.780;25.948;2024-03-23T10:23:43;100968.25;;;19.44;44.18
45275;BME280;31019;43.780;25.948;2024-03-23T10:26:19;100965.22;;;17.67;53.46
45275;BME280;31019;43.780;25.948;2024-03-23T10:28:57;100961.59;;;17.05;63.65
45275;BME280;31019;43.780;25.948;2024-03-23T10:31:26;100960.03;;;17.60;49.30
45275;BME280;31019;43.780;25.948;2024-03-23T10:33:53;100950.41;;;18.47;47.62
45275;BME280;31019;43.780;25.948;2024-03-23T10:36:20;100947.97;;;17.62;45.46
45275;BME280;31019;43.780;25.948;2024-03-23T10:38:48;100941.13;;;17.16;46.52
45275;BME280;31019;43.780;25.948;2024-03-23T10:41:15;100945.09;;;17.30;45.13
45275;BME280;31019;43.780;25.948;2024-03-23T10:43:45;100926.22;;;19.06;41.94
45275;BME280;31019;43.780;25.948;2024-03-23T10:46:12;100929.03;;;20.17;43.71
45275;BME280;31019;43.780;25.948;2024-03-23T10:48:39;100920.94;;;17.69;51.07
45275;BME280;31019;43.780;25.948;2024-03-23T10:51:07;100918.44;;;17.79;51.36
45275;BME280;31019;43.780;25.948;2024-03-23T10:53:35;100924.19;;;16.99;50.47
45275;BME280;31019;43.780;25.948;2024-03-23T10:56:03;100918.31;;;17.18;63.28
45275;BME280;31019;43.780;25.948;2024-03-23T10:58:33;100902.03;;;20.01;42.59
45275;BME280;31019;43.780;25.948;2024-03-23T11:01:04;100903.25;;;18.93;52.82
45275;BME280;31019;43.780;25.948;2024-03-23T11:03:35;100899.81;;;19.83;42.21
45275;BME280;31019;43.780;25.948;2024-03-23T11:06:03;100890.19;;;19.07;45.06
45275;BME280;31019;43.780;25.948;2024-03-23T11:08:34;100890.84;;;19.25;47.83
45275;BME280;31019;43.780;25.948;2024-03-23T11:11:19;100879.75;;;20.36;40.03
45275;BME280;31019;43.780;25.948;2024-03-23T11:13:48;100876.75;;;20.23;42.47
45275;BME280;31019;43.780;25.948;2024-03-23T11:16:23;100872.41;;;19.54;43.18
45275;BME280;31019;43.780;25.948;2024-03-23T11:18:51;100856.50;;;20.15;39.88
45275;BME280;31019;43.780;25.948;2024-03-23T11:21:51;100858.16;;;21.28;38.42
45275;BME280;31019;43.780;25.948;2024-03-23T11:24:25;100855.41;;;19.48;45.42
45275;BME280;31019;43.780;25.948;2024-03-23T11:26:51;100850.28;;;22.07;41.78
45275;BME280;31019;43.780;25.948;2024-03-23T11:29:18;100847.53;;;22.57;38.28
45275;BME280;31019;43.780;25.948;2024-03-23T11:31:52;100852.22;;;19.09;41.79
45275;BME280;31019;43.780;25.948;2024-03-23T11:34:20;100847.69;;;19.09;46.75
45275;BME280;31019;43.780;25.948;2024-03-23T11:36:46;100842.81;;;20.37;39.99
45275;BME280;31019;43.780;25.948;2024-03-23T11:39:14;100833.94;;;20.77;39.30
45275;BME280;31019;43.780;25.948;2024-03-23T11:41:48;100833.00;;;21.48;38.83
45275;BME280;31019;43.780;25.948;2024-03-23T11:44:16;100826.22;;;19.77;41.67
45275;BME280;31019;43.780;25.948;2024-03-23T11:46:44;100827.44;;;19.54;40.85
45275;BME280;31019;43.780;25.948;2024-03-23T11:49:21;100825.00;;;19.05;41.51
45275;BME280;31019;43.780;25.948;2024-03-23T11:51:49;100812.59;;;20.86;37.75
45275;BME280;31019;43.780;25.948;2024-03-23T11:54:15;100805.28;;;18.89;40.07
45275;BME280;31019;43.780;25.948;2024-03-23T11:56:54;100795.34;;;18.30;57.18
45275;BME280;31019;43.780;25.948;2024-03-23T11:59:31;100787.09;;;19.64;43.04
45275;BME280;31019;43.780;25.948;2024-03-23T12:01:58;100783.56;;;19.59;43.33
45275;BME280;31019;43.780;25.948;2024-03-23T12:04:29;100775.88;;;18.13;53.92
45275;BME280;31019;43.780;25.948;2024-03-23T12:07:11;100780.34;;;21.90;37.24
45275;BME280;31019;43.780;25.948;2024-03-23T12:09:37;100769.69;;;19.30;50.60
45275;BME280;31019;43.780;25.948;2024-03-23T12:12:10;100771.31;;;20.45;42.45
45275;BME280;31019;43.780;25.948;2024-03-23T12:14:36;100759.16;;;19.23;42.21
45275;BME280;31019;43.780;25.948;2024-03-23T12:17:10;100756.22;;;19.25;50.38
45275;BME280;31019;43.780;25.948;2024-03-23T12:19:38;100752.91;;;16.57;79.03
45275;BME280;31019;43.780;25.948;2024-03-23T12:22:07;100749.56;;;18.90;56.73
45275;BME280;31019;43.780;25.948;2024-03-23T12:24:35;100743.34;;;19.42;54.33
45275;BME280;31019;43.780;25.948;2024-03-23T12:27:05;100735.97;;;20.00;39.67
45275;BME280;31019;43.780;25.948;2024-03-23T12:29:31;100734.44;;;22.54;36.22
45275;BME280;31019;43.780;25.948;2024-03-23T12:32:00;100734.31;;;19.68;44.06
45275;BME280;31019;43.780;25.948;2024-03-23T12:34:26;100733.91;;;19.39;44.12
45275;BME280;31019;43.780;25.948;2024-03-23T12:36:55;100730.84;;;19.10;38.35
45275;BME280;31019;43.780;25.948;2024-03-23T12:39:21;100730.84;;;20.45;39.55
45275;BME280;31019;43.780;25.948;2024-03-23T12:41:48;100722.78;;;19.20;47.60
45275;BME280;31019;43.780;25.948;2024-03-23T12:44:15;100722.09;;;17.15;71.93
45275;BME280;31019;43.780;25.948;2024-03-23T12:46:46;100715.91;;;19.60;52.77
45275;BME280;31019;43.780;25.948;2024-03-23T12:49:12;100718.13;;;19.79;39.75
45275;BME280;31019;43.780;25.948;2024-03-23T12:51:48;100705.88;;;22.43;38.13
45275;BME280;31019;43.780;25.948;2024-03-23T12:54:20;100698.09;;;19.39;39.39
45275;BME280;31019;43.780;25.948;2024-03-23T12:56:47;100700.97;;;22.45;37.14
45275;BME280;31019;43.780;25.948;2024-03-23T12:59:13;100696.88;;;20.18;48.54
45275;BME280;31019;43.780;25.948;2024-03-23T13:01:40;100687.13;;;18.45;56.05
45275;BME280;31019;43.780;25.948;2024-03-23T13:04:06;100683.88;;;22.49;39.54
45275;BME280;31019;43.780;25.948;2024-03-23T13:06:33;100690.50;;;19.20;47.73
45275;BME280;31019;43.780;25.948;2024-03-23T13:09:00;100676.13;;;22.08;40.58
45275;BME280;31019;43.780;25.948;2024-03-23T13:11:28;100687.22;;;19.08;45.44
45275;BME280;31019;43.780;25.948;2024-03-23T13:13:55;100676.09;;;21.30;38.02
45275;BME280;31019;43.780;25.948;2024-03-23T13:16:22;100672.59;;;21.29;39.79
45275;BME280;31019;43.780;25.948;2024-03-23T13:18:48;100670.75;;;19.98;48.17
45275;BME280;31019;43.780;25.948;2024-03-23T13:21:15;100669.91;;;19.67;50.95
45275;BME280;31019;43.780;25.948;2024-03-23T13:23:42;100663.84;;;18.24;52.18
45275;BME280;31019;43.780;25.948;2024-03-23T13:26:14;100664.50;;;18.41;59.20
45275;BME280;31019;43.780;25.948;2024-03-23T13:28:41;100659.44;;;20.06;47.36
45275;BME280;31019;43.780;25.948;2024-03-23T13:31:10;100653.13;;;21.77;39.27
45275;BME280;31019;43.780;25.948;2024-03-23T13:33:36;100649.91;;;22.86;37.76